LFMT Airport Information

Runway Information
Runway 12L Length 8530 ft width 164 ft
Elevation 17 ft Threshold 0 ft Heading 124
Runway 30R Length 8530 ft Width 164 ft
Elevation 6 ft Threshold 0 ft Heading 304
Runway 12R Length 3609 ft width 98 ft
Elevation 10 ft Threshold 328 ft Heading 124
Runway 30L Length 3609 ft Width 98 ft
Elevation 7 ft Threshold 0 ft Heading 304
Airport Frequencies
Type APP Name MONTPELLIE Frequency 120.375 MHZ
Type ATIS Name MONTPELLIE Frequency 124.125 MHZ
Type GND Name MONTPELLIE Frequency 121.95 MHZ
Type TWR Name MONTPELLIE Frequency 118.2 MHZ
Type TWR Name MONTPELLIE Frequency 118.775 MHZ
Airport Navaids
Type VOR-DME Name Mediterranee Frequency 114450 KHZ
Airport Weather Information & NOTAM
ADDS - METARS form results

(1250 UTC 18 October 2018)
Data provider http://aviationweather.gov/metar/data/
 
METAR text: LFMT 181230Z AUTO 05007KT CAVOK 23/13 Q1013 NOSIG
Conditions at: LFMT (FREJORGUES/MONTP, FR) observed 1230 UTC 18 October 2018
Temperature: 23.0°C (73°F)
Dewpoint: 13.0°C (55°F) [RH = 53%]
Pressure (altimeter): 29.91 inches Hg (1013.0 mb)
Winds: from the NE (50 degrees) at 8 MPH (7 knots; 3.6 m/s)
Visibility: 6 or more miles (10+ km)
Ceiling: ceiling and visibility are OK
Clouds: unknown
Weather: no significant weather observed at this time

METAR text: LFMT 181200Z AUTO 04006KT 010V070 CAVOK 23/14 Q1014 NOSIG
Conditions at: LFMT (FREJORGUES/MONTP, FR) observed 1200 UTC 18 October 2018
Temperature: 23.0°C (73°F)
Dewpoint: 14.0°C (57°F) [RH = 57%]
Pressure (altimeter): 29.94 inches Hg (1014.0 mb)
Winds: from the NE (40 degrees) at 7 MPH (6 knots; 3.1 m/s)
Visibility: 6 or more miles (10+ km)
Ceiling: ceiling and visibility are OK
Clouds: unknown
Weather: no significant weather observed at this time

Forecast for: LFMT (FREJORGUES/MONTP, FR)
Text: TAF LFMT 180800Z 1809/1909 05005KT CAVOK
Forecast period: 0900 UTC 18 October 2018 to 0900 UTC 19 October 2018
Forecast type: FROM: standard forecast or significant change
Winds: from the NE (50 degrees) at 6 MPH (5 knots; 2.6 m/s)
Visibility: 6 or more miles 10+ km)
Ceiling: unknown
Clouds: missing
Weather: NSW  (no significant weather)